Terminal Aerodrome Forecast
Issued by NWS

Home | Current Version | Previous Version | Text Only | Print | Product List | Glossary On
Versions: 1 2 3 4 5 6 7 8 9 10 11 12 13 14 15 16 17 18 19 20 21 22 23 24 25 26 27 28 29 30
826
FTUS42 KGSP 230529
TAFHKY
TAF
KHKY 230529Z 2306/2406 VRB02KT 5SM BR BKN003
     FM231000 VRB02KT 1 1/2SM BR OVC005
      TEMPO 2310/2313 1/2SM FG OVC003
     FM231400 00000KT P6SM OVC015
     FM231600 17002KT P6SM BKN050
     FM232200 17004KT P6SM SCT080=

USA.gov is the U.S. government's official web portal to all federal, state and local government web resources and services.